Terminal Aerodrome Forecast
Issued by NWS Charleston, WV

Home | Current Version | Previous Version | Text Only | Print | Product List | Glossary On
Versions: 1 2 3 4 5 6 7 8 9 10 11 12 13 14 15 16 17 18 19 20 21 22 23 24 25 26
623
FTUS41 KRLX 220909 AAA
TAFCRW
TAF AMD
KCRW 220909Z 2209/2306 00000KT P6SM -SHRA OVC060
     FM221200 00000KT 5SM -SHRA OVC022
     FM221800 VRB02KT P6SM -SHRA BKN030
     FM222100 VRB03KT P6SM BKN030
     FM230000 VRB03KT P6SM BKN040=

USA.gov is the U.S. government's official web portal to all federal, state and local government web resources and services.